Time;durP1;ratioP1;P1;durP2;ratioP2;P2;SDS_P1;SDS_P2;PMS_P1;PMS_P2;Temp;Humidity;BMP_temperature;BMP_pressure;BME280_temperature;BME280_humidity;BME280_pressure;Samples;Min_cycle;Max_cycle;Signal;HPM_P1;HPM_P2
2023/12/16 00:00:30;;;;;;;;;23.67;19.00;;;;;-143.90;100.00;77881.44;4963424;28;102314;-72
2023/12/16 00:02:57;;;;;;;;;36.67;30.00;;;;;-143.90;100.00;77885.56;4962522;28;104269;-71
2023/12/16 00:05:24;;;;;;;;;44.00;33.67;;;;;-143.90;100.00;77891.78;4969496;28;102183;-71
2023/12/16 00:07:50;;;;;;;;;37.33;29.00;;;;;-143.90;100.00;77889.69;4953898;28;102096;-72
2023/12/16 00:10:17;;;;;;;;;35.00;26.67;;;;;-143.90;100.00;77881.44;4971869;28;102419;-72
2023/12/16 00:12:44;;;;;;;;;34.00;27.33;;;;;-143.90;100.00;77877.28;4961632;28;104008;-71
2023/12/16 00:15:11;;;;;;;;;27.67;22.33;;;;;-143.90;100.00;77871.09;4970862;28;102084;-72
2023/12/16 00:17:37;;;;;;;;;21.67;15.33;;;;;-143.90;100.00;77864.88;4968230;28;104145;-71
2023/12/16 00:20:05;;;;;;;;;29.33;19.00;;;;;-143.90;100.00;77864.88;4986636;28;102625;-72
2023/12/16 00:22:32;;;;;;;;;16.50;16.50;;;;;-143.90;100.00;77858.66;4966718;28;104035;-71
2023/12/16 00:24:58;;;;;;;;;15.00;15.00;;;;;-143.90;100.00;77844.19;4968524;28;102222;-72
2023/12/16 00:27:25;;;;;;;;;19.75;13.00;;;;;-143.90;100.00;77848.31;4964969;28;103379;-71
2023/12/16 00:29:52;;;;;;;;;15.75;14.00;;;;;-143.90;100.00;77860.75;4968698;28;101939;-71
2023/12/16 00:32:18;;;;;;;;;15.25;12.50;;;;;-143.90;100.00;77860.75;4958086;28;104010;-72
2023/12/16 00:34:45;;;;;;;;;14.50;12.75;;;;;-143.90;100.00;77846.25;4954586;28;102619;-71
2023/12/16 00:37:12;;;;;;;;;12.25;10.50;;;;;-143.90;100.00;77844.19;4974128;28;104156;-72
2023/12/16 00:39:39;;;;;;;;;14.00;11.75;;;;;-143.90;100.00;77850.41;4971821;28;102440;-71
2023/12/16 00:42:07;;;;;;;;;12.25;11.50;;;;;-143.90;100.00;77842.13;4964028;28;104412;-71
2023/12/16 00:44:34;;;;;;;;;17.67;16.33;;;;;-143.90;100.00;77852.47;4971749;28;102249;-71
2023/12/16 00:47:00;;;;;;;;;19.33;14.67;;;;;-143.90;100.00;77850.41;4965452;28;102055;-72
2023/12/16 00:49:28;;;;;;;;;20.00;16.50;;;;;-143.90;100.00;77852.47;4971803;28;103313;-72
2023/12/16 00:51:56;;;;;;;;;17.00;10.75;;;;;-143.90;100.00;77852.47;4964433;28;106041;-72
2023/12/16 00:54:23;;;;;;;;;21.67;16.67;;;;;-143.90;100.00;77846.25;4969449;28;102049;-72
2023/12/16 00:56:50;;;;;;;;;19.00;15.00;;;;;-143.90;100.00;77852.47;4966170;28;102904;-72
2023/12/16 00:59:16;;;;;;;;;20.67;18.33;;;;;-143.90;100.00;77848.31;4971096;28;102192;-72
2023/12/16 01:01:43;;;;;;;;;26.67;19.33;;;;;-143.90;100.00;77848.31;4969535;28;104297;-72
2023/12/16 01:04:10;;;;;;;;;16.00;13.50;;;;;-143.90;100.00;77850.41;4949353;28;101965;-72
2023/12/16 01:06:36;;;;;;;;;19.67;16.00;;;;;-143.90;100.00;77844.19;4963965;28;101837;-72
2023/12/16 01:09:03;;;;;;;;;13.00;9.33;;;;;-143.90;100.00;77848.31;4967448;28;102539;-72
2023/12/16 01:11:30;;;;;;;;;32.00;23.67;;;;;-143.90;100.00;77850.41;4965339;28;104135;-72
2023/12/16 01:13:56;;;;;;;;;24.00;20.67;;;;;-143.90;100.00;77848.31;4965135;28;102374;-72
2023/12/16 01:16:23;;;;;;;;;24.33;21.67;;;;;-143.90;100.00;77844.19;4960644;28;102899;-72
2023/12/16 01:18:49;;;;;;;;;25.33;19.67;;;;;-143.90;100.00;77842.13;4965808;28;102223;-72
2023/12/16 01:21:17;;;;;;;;;19.00;19.00;;;;;-143.90;100.00;77837.97;4974557;28;104148;-72
2023/12/16 01:23:44;;;;;;;;;22.00;17.67;;;;;-143.90;100.00;77848.31;4973782;28;106164;-72
2023/12/16 01:26:11;;;;;;;;;22.67;19.33;;;;;-143.90;100.00;77844.19;4973392;28;101931;-72
2023/12/16 01:28:38;;;;;;;;;26.33;18.33;;;;;-143.90;100.00;77837.97;4972850;28;102535;-71
2023/12/16 01:31:05;;;;;;;;;20.67;19.33;;;;;-143.90;100.00;77827.63;4968016;28;104074;-71
2023/12/16 01:33:32;;;;;;;;;27.25;20.75;;;;;-143.90;100.00;77833.84;4969431;28;102108;-71
2023/12/16 01:35:59;;;;;;;;;25.33;21.33;;;;;-143.90;100.00;77825.56;4969372;28;102563;-71
2023/12/16 01:38:25;;;;;;;;;22.75;15.25;;;;;-143.90;100.00;77817.28;4969322;28;102490;-71
2023/12/16 01:40:52;;;;;;;;;17.50;16.00;;;;;-143.90;100.00;77815.22;4967439;28;103822;-71
2023/12/16 01:43:19;;;;;;;;;16.50;13.75;;;;;-143.90;100.00;77815.22;4966420;28;103772;-71
2023/12/16 01:45:48;;;;;;;;;14.50;10.50;;;;;-143.90;100.00;77811.09;4970556;28;102194;-71
2023/12/16 01:48:15;;;;;;;;;13.75;11.75;;;;;-143.90;100.00;77806.94;4968715;28;104105;-71
2023/12/16 01:50:42;;;;;;;;;11.50;9.50;;;;;-143.90;100.00;77806.94;4973028;28;109017;-71
2023/12/16 01:53:09;;;;;;;;;15.25;13.50;;;;;-143.90;100.00;77806.94;4966642;28;103213;-72
2023/12/16 01:55:36;;;;;;;;;15.00;14.00;;;;;-143.90;100.00;77817.28;4965604;28;102134;-71
2023/12/16 01:58:03;;;;;;;;;19.25;13.75;;;;;-143.90;100.00;77819.38;4963499;28;102500;-72
2023/12/16 02:00:31;;;;;;;;;13.25;11.50;;;;;-143.90;100.00;77823.50;4966337;28;103966;-71
2023/12/16 02:02:58;;;;;;;;;16.50;10.50;;;;;-143.90;100.00;77819.38;4963319;28;102200;-71
2023/12/16 02:05:24;;;;;;;;;16.25;13.50;;;;;-143.90;100.00;77825.56;4965868;28;102312;-72
2023/12/16 02:07:51;;;;;;;;;14.25;12.25;;;;;-143.90;100.00;77827.63;4964688;28;102201;-71
2023/12/16 02:10:18;;;;;;;;;11.50;10.00;;;;;-143.90;100.00;77823.50;4967883;28;105532;-71
2023/12/16 02:12:45;;;;;;;;;10.75;7.50;;;;;-143.90;100.00;77823.50;4965691;28;103628;-71
2023/12/16 02:15:11;;;;;;;;;10.50;6.50;;;;;-143.90;100.00;77823.50;4967423;28;102493;-70
2023/12/16 02:17:38;;;;;;;;;5.75;4.25;;;;;-143.90;100.00;77827.63;4970055;28;102501;-71
2023/12/16 02:20:06;;;;;;;;;13.50;10.00;;;;;-143.90;100.00;77827.63;4965918;28;104096;-71
2023/12/16 02:22:32;;;;;;;;;8.25;6.00;;;;;-143.90;100.00;77825.56;4966254;28;102687;-72
2023/12/16 02:25:00;;;;;;;;;11.50;6.00;;;;;-143.90;100.00;77823.50;4963663;28;106234;-71
2023/12/16 02:27:27;;;;;;;;;13.25;9.50;;;;;-143.90;100.00;77821.44;4967493;28;102021;-71
2023/12/16 02:29:53;;;;;;;;;21.00;17.00;;;;;-143.90;100.00;77825.56;4967428;28;103977;-72
2023/12/16 02:32:20;;;;;;;;;20.75;13.00;;;;;-143.90;100.00;77823.50;4966994;28;102565;-71
2023/12/16 02:34:48;;;;;;;;;12.00;9.50;;;;;-143.90;100.00;77821.44;4968397;28;101848;-71
2023/12/16 02:37:14;;;;;;;;;19.00;15.00;;;;;-143.90;100.00;77821.44;4967659;28;102989;-71
2023/12/16 02:39:41;;;;;;;;;17.50;13.00;;;;;-143.90;100.00;77819.38;4969313;28;104070;-72
2023/12/16 02:42:08;;;;;;;;;12.25;11.00;;;;;-143.90;100.00;77819.38;4963199;28;102079;-71
2023/12/16 02:44:35;;;;;;;;;14.00;12.00;;;;;-143.90;100.00;77823.50;4964650;28;102041;-72
2023/12/16 02:47:01;;;;;;;;;13.25;11.00;;;;;-143.90;100.00;77829.72;4966282;28;102071;-72
2023/12/16 02:49:28;;;;;;;;;11.00;8.00;;;;;-143.90;100.00;77829.72;4966810;28;104300;-72
2023/12/16 02:51:55;;;;;;;;;12.50;10.25;;;;;-143.90;100.00;77833.84;4966792;28;108206;-72
2023/12/16 02:54:22;;;;;;;;;14.25;10.00;;;;;-143.90;100.00;77827.63;4968652;28;103029;-72
2023/12/16 02:56:48;;;;;;;;;19.50;16.25;;;;;-143.90;100.00;77827.63;4963906;28;102334;-72
2023/12/16 02:59:15;;;;;;;;;20.25;16.75;;;;;-143.90;100.00;77835.91;4969478;28;104043;-72
2023/12/16 03:01:41;;;;;;;;;16.50;16.00;;;;;-143.90;100.00;77829.72;4964566;28;101898;-71
2023/12/16 03:04:08;;;;;;;;;22.00;18.75;;;;;-143.90;100.00;77827.63;4969468;28;102002;-71
2023/12/16 03:06:36;;;;;;;;;27.25;22.25;;;;;-143.90;100.00;77827.63;4965414;28;102305;-71
2023/12/16 03:09:02;;;;;;;;;22.67;20.67;;;;;-143.90;100.00;77835.91;4968498;28;104187;-71
2023/12/16 03:11:29;;;;;;;;;22.67;19.00;;;;;-143.90;100.00;77829.72;4956957;28;103080;-71
2023/12/16 03:13:56;;;;;;;;;20.00;17.67;;;;;-143.90;100.00;77825.56;4959289;28;103151;-71
2023/12/16 03:16:22;;;;;;;;;14.75;13.00;;;;;-143.90;100.00;77827.63;4961418;28;103037;-71
2023/12/16 03:18:49;;;;;;;;;14.50;14.00;;;;;-143.90;100.00;77829.72;4961013;28;103992;-71
2023/12/16 03:21:16;;;;;;;;;18.00;15.50;;;;;-143.90;100.00;77837.97;4953824;28;102659;-71
2023/12/16 03:23:43;;;;;;;;;23.25;17.00;;;;;-143.90;100.00;77831.78;4969959;28;102173;-71
2023/12/16 03:26:09;;;;;;;;;14.00;12.25;;;;;-143.90;100.00;77831.78;4975154;28;102670;-71
2023/12/16 03:28:36;;;;;;;;;11.00;9.50;;;;;-143.90;100.00;77829.72;4962248;28;103999;-71
2023/12/16 03:31:03;;;;;;;;;13.25;9.00;;;;;-143.90;100.00;77835.91;4969463;28;103916;-71
2023/12/16 03:33:29;;;;;;;;;9.00;8.50;;;;;-143.90;100.00;77840.06;4976095;28;102067;-71
2023/12/16 03:35:56;;;;;;;;;11.00;9.75;;;;;-143.90;100.00;77837.97;4971020;28;102211;-71
2023/12/16 03:38:23;;;;;;;;;11.50;6.00;;;;;-143.90;100.00;77829.72;4963263;28;104047;-71
2023/12/16 03:40:49;;;;;;;;;10.50;9.00;;;;;-143.90;100.00;77835.91;4967382;28;102094;-71
2023/12/16 03:43:19;;;;;;;;;21.00;15.50;;;;;-143.90;100.00;77848.31;4969531;28;103318;-71
2023/12/16 03:45:46;;;;;;;;;16.50;14.00;;;;;-143.90;100.00;77852.47;4968974;28;102730;-71
2023/12/16 03:48:13;;;;;;;;;15.00;13.00;;;;;-143.90;100.00;77844.19;4967706;28;103997;-71
2023/12/16 03:50:39;;;;;;;;;16.50;14.75;;;;;-143.90;100.00;77846.25;4965638;28;102150;-71
2023/12/16 03:53:06;;;;;;;;;19.75;15.50;;;;;-143.90;100.00;77837.97;4964509;28;102083;-71
2023/12/16 03:55:33;;;;;;;;;23.50;17.25;;;;;-143.90;100.00;77827.63;4969752;28;102148;-71
2023/12/16 03:57:59;;;;;;;;;14.75;13.00;;;;;-143.90;100.00;77827.63;4964704;28;104036;-71
2023/12/16 04:00:26;;;;;;;;;20.25;15.50;;;;;-143.90;100.00;77825.56;4965370;28;102290;-71
2023/12/16 04:02:52;;;;;;;;;17.75;13.00;;;;;-143.90;100.00;77831.78;4963132;28;102555;-71
2023/12/16 04:05:19;;;;;;;;;18.25;15.00;;;;;-143.90;100.00;77827.63;4967367;28;101953;-71
2023/12/16 04:07:46;;;;;;;;;13.75;11.25;;;;;-143.90;100.00;77823.50;4965908;28;103988;-71
2023/12/16 04:10:13;;;;;;;;;12.75;11.25;;;;;-143.90;100.00;77825.56;4974296;28;101940;-71
2023/12/16 04:12:39;;;;;;;;;14.00;10.00;;;;;-143.90;100.00;77819.38;4970419;28;101979;-71
2023/12/16 04:15:07;;;;;;;;;12.75;9.50;;;;;-143.90;100.00;77819.38;4968193;28;102840;-72
2023/12/16 04:17:34;;;;;;;;;12.50;10.00;;;;;-143.90;100.00;77817.28;4964918;28;106504;-71
2023/12/16 04:20:00;;;;;;;;;15.00;12.75;;;;;-143.90;100.00;77817.28;4967568;28;102691;-71
2023/12/16 04:22:27;;;;;;;;;19.00;17.50;;;;;-143.90;100.00;77817.28;4962057;28;102137;-71
2023/12/16 04:24:57;;;;;;;;;18.25;13.75;;;;;-143.90;100.00;77815.22;4970838;28;101807;-71
2023/12/16 04:27:26;;;;;;;;;20.75;17.25;;;;;-143.90;100.00;77813.16;4965754;28;103625;-71
2023/12/16 04:29:52;;;;;;;;;20.75;16.25;;;;;-143.90;100.00;77813.16;4971602;28;102062;-71
2023/12/16 04:32:22;;;;;;;;;21.00;17.75;;;;;-143.90;100.00;77815.22;4961621;28;102323;-71
2023/12/16 04:34:49;;;;;;;;;25.25;20.00;;;;;-143.90;100.00;77817.28;4975722;28;102232;-71
2023/12/16 04:37:15;;;;;;;;;25.75;19.25;;;;;-143.90;100.00;77817.28;4980601;28;103966;-70
2023/12/16 04:39:42;;;;;;;;;21.00;19.00;;;;;-143.90;100.00;77815.22;4976758;28;101935;-71
2023/12/16 04:42:10;;;;;;;;;17.00;15.50;;;;;-143.90;100.00;77823.50;4972464;28;102048;-71
2023/12/16 04:44:37;;;;;;;;;27.67;23.00;;;;;-143.90;100.00;77831.78;4971230;28;102355;-71
2023/12/16 04:47:04;;;;;;;;;18.00;14.00;;;;;-143.90;100.00;77835.91;4975978;28;104063;-71
2023/12/16 04:49:31;;;;;;;;;30.00;26.33;;;;;-143.90;100.00;77831.78;4971578;28;102491;-71
2023/12/16 04:51:57;;;;;;;;;30.67;22.00;;;;;-143.90;100.00;77827.63;4970967;28;102245;-71
2023/12/16 04:54:24;;;;;;;;;43.00;29.33;;;;;-143.90;100.00;77831.78;4970634;28;101906;-71
2023/12/16 04:56:51;;;;;;;;;46.67;36.00;;;;;-143.90;100.00;77837.97;4967083;28;105740;-72
2023/12/16 04:59:17;;;;;;;;;42.00;28.33;;;;;-143.90;100.00;77840.06;4969150;28;102412;-71
2023/12/16 05:01:46;;;;;;;;;26.00;17.33;;;;;-143.90;100.00;77835.91;4971101;28;102076;-71
2023/12/16 05:04:13;;;;;;;;;24.67;22.00;;;;;-143.90;100.00;77837.97;4977069;28;102489;-70
2023/12/16 05:06:39;;;;;;;;;28.25;19.75;;;;;-143.90;100.00;77835.91;4968455;28;103992;-71
2023/12/16 05:09:12;;;;;;;;;24.67;21.67;;;;;-143.90;100.00;77835.91;4970229;28;102575;-72
2023/12/16 05:11:39;;;;;;;;;24.75;21.00;;;;;-143.90;100.00;77837.97;4966462;28;101956;-71
2023/12/16 05:14:05;;;;;;;;;27.50;20.00;;;;;-143.90;100.00;77831.78;4968511;28;103102;-72
2023/12/16 05:16:32;;;;;;;;;26.67;24.33;;;;;-143.90;100.00;77842.13;4967618;28;104311;-72
2023/12/16 05:19:00;;;;;;;;;28.25;21.00;;;;;-143.90;100.00;77842.13;4967808;28;102531;-72
2023/12/16 05:21:27;;;;;;;;;14.75;14.25;;;;;-143.90;100.00;77837.97;4955234;28;102471;-72
2023/12/16 05:23:54;;;;;;;;;28.50;20.25;;;;;-143.90;100.00;77833.84;4975546;28;102250;-72
2023/12/16 05:26:21;;;;;;;;;26.33;21.00;;;;;-143.90;100.00;77835.91;4966025;28;104096;-72
2023/12/16 05:28:48;;;;;;;;;26.50;21.75;;;;;-143.90;100.00;77844.19;4965144;28;102342;-72
2023/12/16 05:31:15;;;;;;;;;25.33;21.33;;;;;-143.90;100.00;77844.19;4972077;28;103242;-72
2023/12/16 05:33:43;;;;;;;;;22.50;20.50;;;;;-143.90;100.00;77844.19;4960096;28;102037;-72
2023/12/16 05:36:10;;;;;;;;;20.50;18.50;;;;;-143.90;100.00;77844.19;4965323;28;104225;-72
2023/12/16 05:38:37;;;;;;;;;30.25;24.00;;;;;-143.90;100.00;77844.19;4967558;28;103804;-72
2023/12/16 05:41:04;;;;;;;;;22.25;19.75;;;;;-143.90;100.00;77842.13;4961923;28;102387;-72
2023/12/16 05:43:31;;;;;;;;;24.00;19.50;;;;;-143.90;100.00;77850.41;4972355;28;102411;-72
2023/12/16 05:45:58;;;;;;;;;17.00;14.00;;;;;-143.90;100.00;77848.31;4972629;28;103634;-72
2023/12/16 05:48:26;;;;;;;;;14.50;14.00;;;;;-143.90;100.00;77856.59;4971154;28;102123;-72
2023/12/16 05:50:52;;;;;;;;;20.50;13.50;;;;;-143.90;100.00;77854.53;4969724;28;101986;-71
2023/12/16 05:53:19;;;;;;;;;12.20;10.40;;;;;-143.90;100.00;77856.59;4629027;28;10000609;-72
2023/12/16 05:55:47;;;;;;;;;28.00;24.00;;;;;-143.90;100.00;77864.88;4972796;28;102320;-71
2023/12/16 05:58:14;;;;;;;;;22.75;21.00;;;;;-143.90;100.00;77862.81;4966866;28;108875;-72
2023/12/16 06:00:44;;;;;;;;;19.50;18.00;;;;;-143.90;100.00;77856.59;4982215;28;102154;-71
2023/12/16 06:03:11;;;;;;;;;13.50;13.00;;;;;-143.90;100.00;77858.66;4968925;28;104297;-72
2023/12/16 06:05:38;;;;;;;;;15.25;15.00;;;;;-143.90;100.00;77852.47;4968238;28;102424;-72
2023/12/16 06:08:05;;;;;;;;;19.75;18.50;;;;;-143.90;100.00;77852.47;4969639;28;104004;-73
2023/12/16 06:10:31;;;;;;;;;18.75;14.00;;;;;-143.90;100.00;77848.31;4970287;28;102989;-72
2023/12/16 06:12:58;;;;;;;;;17.75;14.00;;;;;-143.90;100.00;77848.31;4965830;28;103931;-72
2023/12/16 06:15:25;;;;;;;;;12.75;10.00;;;;;-143.90;100.00;77844.19;4969619;28;102001;-72
2023/12/16 06:17:51;;;;;;;;;15.25;13.50;;;;;-143.90;100.00;77848.31;4968806;28;104621;-71
2023/12/16 06:20:18;;;;;;;;;6.50;6.00;;;;;-143.90;100.00;77833.84;4967321;28;102284;-71
2023/12/16 06:22:45;;;;;;;;;18.00;12.75;;;;;-143.90;100.00;77840.06;4972340;28;102012;-72
2023/12/16 06:25:12;;;;;;;;;13.25;12.50;;;;;-143.90;100.00;77837.97;4968199;28;102085;-71
2023/12/16 06:27:40;;;;;;;;;17.00;14.00;;;;;-143.90;100.00;77835.91;4968033;28;104050;-71
2023/12/16 06:30:08;;;;;;;;;14.00;13.25;;;;;-143.90;100.00;77844.19;4968765;28;102475;-72
2023/12/16 06:32:35;;;;;;;;;23.25;17.00;;;;;-143.90;100.00;77831.78;4961678;28;102137;-72
2023/12/16 06:35:03;;;;;;;;;16.50;14.00;;;;;-143.90;100.00;77844.19;4967233;28;102239;-72
2023/12/16 06:37:29;;;;;;;;;22.25;16.50;;;;;-143.90;100.00;77837.97;4964758;28;103995;-72
2023/12/16 06:39:56;;;;;;;;;13.00;10.50;;;;;-143.90;100.00;77833.84;4968635;28;102458;-72
2023/12/16 06:42:25;;;;;;;;;14.75;13.25;;;;;-143.90;100.00;77833.84;4968798;28;102089;-72
2023/12/16 06:44:52;;;;;;;;;14.25;12.75;;;;;-143.90;100.00;77831.78;4964167;28;102257;-72
2023/12/16 06:47:18;;;;;;;;;10.00;8.25;;;;;-143.90;100.00;77831.78;4970135;28;104122;-72
2023/12/16 06:49:45;;;;;;;;;12.75;10.00;;;;;-143.90;100.00;77827.63;4974885;28;102901;-72
2023/12/16 06:52:12;;;;;;;;;11.50;7.50;;;;;-143.90;100.00;77825.56;4969349;28;102302;-72
2023/12/16 06:54:38;;;;;;;;;14.50;11.00;;;;;-143.90;100.00;77831.78;4969023;28;102447;-72
2023/12/16 06:57:05;;;;;;;;;11.25;9.25;;;;;-143.90;100.00;77831.78;4969807;28;104074;-72
2023/12/16 06:59:32;;;;;;;;;11.25;10.75;;;;;-143.90;100.00;77833.84;4967943;28;102731;-72
2023/12/16 07:01:59;;;;;;;;;18.25;13.00;;;;;-143.90;100.00;77833.84;4968513;28;102015;-71
2023/12/16 07:04:26;;;;;;;;;15.25;14.25;;;;;-143.90;100.00;77831.78;4969874;28;102647;-72
2023/12/16 07:06:53;;;;;;;;;18.00;15.50;;;;;-143.90;100.00;77835.91;4968277;28;104157;-71
2023/12/16 07:09:20;;;;;;;;;17.25;12.50;;;;;-143.90;100.00;77837.97;4966755;28;102383;-71
2023/12/16 07:11:46;;;;;;;;;15.50;13.25;;;;;-143.90;100.00;77833.84;4971250;28;102552;-72
2023/12/16 07:14:13;;;;;;;;;19.00;16.25;;;;;-143.90;100.00;77835.91;4968133;28;104244;-72
2023/12/16 07:16:39;;;;;;;;;20.50;19.50;;;;;-143.90;100.00;77833.84;4966809;28;103416;-72
2023/12/16 07:19:06;;;;;;;;;29.00;23.00;;;;;-143.90;100.00;77840.06;4960705;28;105381;-72
2023/12/16 07:21:33;;;;;;;;;34.50;31.00;;;;;-143.90;100.00;77837.97;4964072;28;102045;-72
2023/12/16 07:23:59;;;;;;;;;34.33;29.00;;;;;-143.90;100.00;77833.84;4967197;28;102077;-72
2023/12/16 07:26:26;;;;;;;;;37.25;25.00;;;;;-143.90;100.00;77837.97;4967602;28;104280;-72
2023/12/16 07:28:52;;;;;;;;;29.67;26.33;;;;;-143.90;100.00;77831.78;4969514;28;102169;-71
2023/12/16 07:31:19;;;;;;;;;36.33;28.67;;;;;-143.90;100.00;77831.78;4967270;28;101954;-72
2023/12/16 07:33:46;;;;;;;;;23.50;18.50;;;;;-143.90;100.00;77833.84;4970059;28;104317;-71
2023/12/16 07:36:13;;;;;;;;;26.75;23.25;;;;;-143.90;100.00;77831.78;4968482;28;108962;-71
2023/12/16 07:38:39;;;;;;;;;31.25;25.25;;;;;-143.90;100.00;77827.63;4966291;28;102551;-72
2023/12/16 07:41:07;;;;;;;;;27.25;22.00;;;;;-143.90;100.00;77829.72;4965916;28;102604;-72
2023/12/16 07:43:33;;;;;;;;;27.25;19.75;;;;;-143.90;100.00;77827.63;4975459;28;102030;-73
2023/12/16 07:46:01;;;;;;;;;26.25;19.25;;;;;-143.90;100.00;77815.22;4970473;28;104286;-73
2023/12/16 07:48:29;;;;;;;;;22.00;17.00;;;;;-143.90;100.00;77821.44;4967391;28;102595;-71
2023/12/16 07:50:55;;;;;;;;;20.00;11.50;;;;;-143.90;100.00;77825.56;4964519;28;102563;-72
2023/12/16 07:53:22;;;;;;;;;27.00;22.00;;;;;-143.90;100.00;77819.38;4975191;28;102292;-72
2023/12/16 07:55:49;;;;;;;;;24.75;19.00;;;;;-143.90;100.00;77811.09;4962716;28;104211;-72
2023/12/16 07:58:16;;;;;;;;;20.50;17.50;;;;;-143.90;100.00;77811.09;4977465;28;102434;-71
2023/12/16 08:00:43;;;;;;;;;21.50;15.00;;;;;-143.90;100.00;77806.94;4954022;28;102053;-71
2023/12/16 08:03:09;;;;;;;;;15.50;13.75;;;;;-143.90;100.00;77802.81;4952017;28;102175;-73
2023/12/16 08:05:39;;;;;;;;;19.25;15.75;;;;;-143.90;100.00;77804.88;4950183;28;103731;-72
2023/12/16 08:08:06;;;;;;;;;20.25;17.00;;;;;-143.90;100.00;77804.88;4951308;28;102217;-72
2023/12/16 08:10:32;;;;;;;;;17.00;14.00;;;;;-143.90;100.00;77806.94;4950882;28;102262;-71
2023/12/16 08:12:59;;;;;;;;;22.75;18.75;;;;;-143.90;100.00;77806.94;4953942;28;102351;-72
2023/12/16 08:15:26;;;;;;;;;26.00;20.00;;;;;-143.90;100.00;77806.94;4947160;28;104003;-71
2023/12/16 08:17:52;;;;;;;;;19.75;17.75;;;;;-143.90;100.00;77792.47;4951806;28;102093;-72
2023/12/16 08:20:19;;;;;;;;;21.00;16.50;;;;;-143.90;100.00;77794.53;4948319;28;103332;-73
2023/12/16 08:22:46;;;;;;;;;18.75;16.50;;;;;-143.90;100.00;77794.53;4955999;28;102365;-72
2023/12/16 08:25:12;;;;;;;;;18.00;16.75;;;;;-143.90;100.00;77792.47;4950452;28;104097;-72
2023/12/16 08:27:39;;;;;;;;;25.00;20.25;;;;;-143.90;100.00;77794.53;4955746;28;102057;-71
2023/12/16 08:30:07;;;;;;;;;24.00;20.50;;;;;-143.90;100.00;77790.41;4968759;28;102425;-72
2023/12/16 08:32:34;;;;;;;;;21.75;18.00;;;;;-143.90;100.00;77790.41;4950027;28;102047;-72
2023/12/16 08:35:00;;;;;;;;;20.25;17.25;;;;;-143.90;100.00;77786.25;4949603;28;104117;-72
2023/12/16 08:37:27;;;;;;;;;29.00;21.75;;;;;-143.90;100.00;77786.25;4951198;28;102602;-72
2023/12/16 08:39:54;;;;;;;;;23.50;15.50;;;;;-143.90;100.00;77786.25;4948489;28;103103;-71
2023/12/16 08:42:20;;;;;;;;;24.75;18.00;;;;;-143.90;100.00;77782.13;4951084;28;102486;-71
2023/12/16 08:44:47;;;;;;;;;21.00;17.75;;;;;-143.90;100.00;77778.00;4949563;28;104293;-72
2023/12/16 08:47:14;;;;;;;;;27.75;20.00;;;;;-143.90;100.00;77769.72;4952533;28;102229;-72
2023/12/16 08:49:43;;;;;;;;;22.75;20.00;;;;;-143.90;100.00;77765.56;4946974;28;102193;-71
2023/12/16 08:52:11;;;;;;;;;14.75;12.50;;;;;-143.90;100.00;77763.50;4948610;28;102933;-71
2023/12/16 08:54:41;;;;;;;;;19.50;18.25;;;;;-143.90;100.00;77761.44;4950012;28;104049;-71
2023/12/16 08:57:07;;;;;;;;;23.50;19.00;;;;;-143.90;100.00;77765.56;4947749;28;103469;-72
2023/12/16 08:59:35;;;;;;;;;26.25;18.50;;;;;-143.90;100.00;77763.50;4950108;28;102217;-72
2023/12/16 09:02:03;;;;;;;;;17.00;15.00;;;;;-143.90;100.00;77753.16;4949189;28;102720;-72
2023/12/16 09:04:29;;;;;;;;;19.25;15.00;;;;;-143.90;100.00;77749.03;4949344;28;104150;-72
2023/12/16 09:06:56;;;;;;;;;24.25;20.25;;;;;-143.90;100.00;77740.75;4951671;28;102638;-72
2023/12/16 09:09:23;;;;;;;;;32.00;25.50;;;;;-143.90;100.00;77736.63;4951618;28;102600;-70
2023/12/16 09:11:50;;;;;;;;;25.50;22.00;;;;;-143.90;100.00;77726.28;4951607;28;102216;-71
2023/12/16 09:14:16;;;;;;;;;20.50;16.50;;;;;-143.90;100.00;77728.34;4952290;28;104078;-71
2023/12/16 09:16:43;;;;;;;;;20.50;18.50;;;;;-143.90;100.00;77728.34;4949781;28;103252;-72
2023/12/16 09:19:11;;;;;;;;;19.50;16.75;;;;;-143.90;100.00;77720.06;4945463;28;101990;-71
2023/12/16 09:21:39;;;;;;;;;29.25;27.00;;;;;-143.90;100.00;77730.41;4950705;28;103834;-71
2023/12/16 09:24:06;;;;;;;;;30.50;26.25;;;;;-143.90;100.00;77732.47;4947482;28;104042;-71
2023/12/16 09:26:33;;;;;;;;;38.33;31.67;;;;;-143.90;100.00;77740.75;4945843;28;102356;-71
2023/12/16 09:29:00;;;;;;;;;33.50;28.00;;;;;-143.90;100.00;77736.63;4946584;28;102376;-72
2023/12/16 09:31:27;;;;;;;;;33.25;23.00;;;;;-143.90;100.00;77732.47;4964419;28;102669;-72
2023/12/16 09:33:54;;;;;;;;;37.67;30.67;;;;;-143.90;100.00;77734.53;4944605;28;104256;-71
2023/12/16 09:36:26;;;;;;;;;34.50;32.25;;;;;-143.90;100.00;77732.47;4947722;28;102064;-71
2023/12/16 09:38:57;;;;;;;;;33.25;28.00;;;;;-143.90;100.00;77740.75;4943655;28;102608;-72
2023/12/16 09:41:25;;;;;;;;;36.25;29.50;;;;;-143.90;100.00;77742.81;4952567;28;102004;-71
2023/12/16 09:43:54;;;;;;;;;35.75;27.00;;;;;-143.90;100.00;77738.69;4943952;28;104239;-72
2023/12/16 09:46:23;;;;;;;;;45.50;30.75;;;;;-143.90;100.00;77726.28;4950061;28;102703;-71
2023/12/16 09:48:50;;;;;;;;;38.50;30.75;;;;;-143.90;100.00;77726.28;4947630;28;102335;-71
2023/12/16 09:51:19;;;;;;;;;32.33;31.67;;;;;-143.90;100.00;77732.47;4952521;28;103428;-72
2023/12/16 09:53:46;;;;;;;;;31.00;28.00;;;;;-143.90;100.00;77724.19;4941828;28;108529;-71
2023/12/16 09:56:14;;;;;;;;;35.00;26.25;;;;;-143.90;100.00;77715.94;4947596;28;102203;-71
2023/12/16 09:58:44;;;;;;;;;30.25;26.00;;;;;-143.90;100.00;77711.78;4945839;28;102471;-72
2023/12/16 10:01:11;;;;;;;;;35.25;30.25;;;;;-143.90;100.00;77699.38;4945309;28;102627;-71
2023/12/16 10:03:39;;;;;;;;;27.50;24.50;;;;;-143.90;100.00;77699.38;4942758;28;104029;-72
2023/12/16 10:06:08;;;;;;;;;34.00;28.00;;;;;-143.90;100.00;77693.16;4950038;28;102172;-71
2023/12/16 10:08:36;;;;;;;;;32.50;24.50;;;;;-143.90;100.00;77693.16;4948970;28;102082;-72
2023/12/16 10:11:04;;;;;;;;;27.50;24.25;;;;;-143.90;100.00;77691.09;4947943;28;102092;-72
2023/12/16 10:13:59;;;;;;;;;28.50;27.25;;;;;-143.90;100.00;77686.97;4947626;28;104032;-72
2023/12/16 10:16:27;;;;;;;;;22.50;20.00;;;;;-143.90;100.00;77680.75;4944237;28;102385;-72
2023/12/16 10:18:57;;;;;;;;;33.25;26.25;;;;;-143.90;100.00;77674.56;4948653;28;102040;-71
2023/12/16 10:21:29;;;;;;;;;33.25;29.25;;;;;-143.90;100.00;77668.34;4949537;28;102029;-72
2023/12/16 10:23:57;;;;;;;;;33.00;28.50;;;;;-143.90;100.00;77660.06;4948191;28;104113;-71
2023/12/16 10:26:24;;;;;;;;;35.00;28.25;;;;;-143.90;100.00;77655.94;4944581;28;102087;-71
2023/12/16 10:28:52;;;;;;;;;33.50;24.75;;;;;-143.90;100.00;77653.88;4945561;28;102286;-72
2023/12/16 10:31:21;;;;;;;;;35.00;31.50;;;;;-143.90;100.00;77658.00;4947782;28;102641;-71
2023/12/16 10:33:48;;;;;;;;;35.75;25.75;;;;;-143.90;100.00;77645.59;4946924;28;103729;-72
2023/12/16 10:36:15;;;;;;;;;33.25;28.50;;;;;-143.90;100.00;77647.66;4944045;28;102062;-72
2023/12/16 10:38:42;;;;;;;;;36.00;29.75;;;;;-143.90;100.00;77660.06;4945184;28;102392;-71
2023/12/16 10:41:09;;;;;;;;;33.00;27.00;;;;;-143.90;100.00;77660.06;4947866;28;102515;-71
2023/12/16 10:43:37;;;;;;;;;32.75;27.00;;;;;-143.90;100.00;77653.88;4945685;28;104024;-71
2023/12/16 10:46:06;;;;;;;;;32.00;28.00;;;;;-143.90;100.00;77649.72;4940511;28;102831;-71